sensor_id;sensor_type;location;lat;lon;timestamp;P1;durP1;ratioP1;P2;durP2;ratioP2
22205;SDS011;11272;50.104;8.754;2022-12-20T00:02:07;83.23;;;28.93;;
22205;SDS011;11272;50.104;8.754;2022-12-20T00:04:32;73.07;;;25.93;;
22205;SDS011;11272;50.104;8.754;2022-12-20T00:06:58;74.20;;;26.10;;
22205;SDS011;11272;50.104;8.754;2022-12-20T00:09:24;73.37;;;26.80;;
22205;SDS011;11272;50.104;8.754;2022-12-20T00:11:49;77.87;;;27.17;;
22205;SDS011;11272;50.104;8.754;2022-12-20T00:14:16;93.33;;;27.47;;
22205;SDS011;11272;50.104;8.754;2022-12-20T00:16:42;80.83;;;27.40;;
22205;SDS011;11272;50.104;8.754;2022-12-20T00:19:08;79.87;;;25.30;;
22205;SDS011;11272;50.104;8.754;2022-12-20T00:21:34;75.57;;;24.60;;
22205;SDS011;11272;50.104;8.754;2022-12-20T00:24:00;90.47;;;27.63;;
22205;SDS011;11272;50.104;8.754;2022-12-20T00:26:27;73.83;;;27.13;;
22205;SDS011;11272;50.104;8.754;2022-12-20T00:28:55;76.20;;;25.20;;
22205;SDS011;11272;50.104;8.754;2022-12-20T00:31:21;98.57;;;28.90;;
22205;SDS011;11272;50.104;8.754;2022-12-20T00:33:49;69.80;;;25.13;;
22205;SDS011;11272;50.104;8.754;2022-12-20T00:36:17;80.57;;;26.07;;
22205;SDS011;11272;50.104;8.754;2022-12-20T00:38:45;81.07;;;27.67;;
22205;SDS011;11272;50.104;8.754;2022-12-20T00:41:13;77.47;;;25.13;;
22205;SDS011;11272;50.104;8.754;2022-12-20T00:43:40;76.53;;;26.30;;
22205;SDS011;11272;50.104;8.754;2022-12-20T00:46:08;78.00;;;25.33;;
22205;SDS011;11272;50.104;8.754;2022-12-20T00:48:35;84.40;;;26.17;;
22205;SDS011;11272;50.104;8.754;2022-12-20T00:51:02;85.87;;;26.50;;
22205;SDS011;11272;50.104;8.754;2022-12-20T00:53:29;79.00;;;25.30;;
22205;SDS011;11272;50.104;8.754;2022-12-20T00:55:56;80.93;;;25.83;;
22205;SDS011;11272;50.104;8.754;2022-12-20T00:58:22;82.20;;;26.90;;
22205;SDS011;11272;50.104;8.754;2022-12-20T01:00:48;74.37;;;24.67;;
22205;SDS011;11272;50.104;8.754;2022-12-20T01:03:14;73.07;;;25.27;;
22205;SDS011;11272;50.104;8.754;2022-12-20T01:05:48;71.57;;;24.90;;
22205;SDS011;11272;50.104;8.754;2022-12-20T01:08:22;65.77;;;23.80;;
22205;SDS011;11272;50.104;8.754;2022-12-20T01:10:58;77.40;;;26.40;;
22205;SDS011;11272;50.104;8.754;2022-12-20T01:13:32;69.07;;;25.23;;
22205;SDS011;11272;50.104;8.754;2022-12-20T01:16:04;77.73;;;25.17;;
22205;SDS011;11272;50.104;8.754;2022-12-20T01:18:38;73.87;;;25.73;;
22205;SDS011;11272;50.104;8.754;2022-12-20T01:21:05;75.23;;;25.50;;
22205;SDS011;11272;50.104;8.754;2022-12-20T01:23:33;73.47;;;25.00;;
22205;SDS011;11272;50.104;8.754;2022-12-20T01:26:00;80.27;;;25.90;;
22205;SDS011;11272;50.104;8.754;2022-12-20T01:28:29;73.23;;;26.70;;
22205;SDS011;11272;50.104;8.754;2022-12-20T01:30:56;80.17;;;26.50;;
22205;SDS011;11272;50.104;8.754;2022-12-20T01:33:21;81.17;;;25.87;;
22205;SDS011;11272;50.104;8.754;2022-12-20T01:36:00;68.00;;;24.77;;
22205;SDS011;11272;50.104;8.754;2022-12-20T01:38:32;65.43;;;24.20;;
22205;SDS011;11272;50.104;8.754;2022-12-20T01:41:00;74.27;;;24.50;;
22205;SDS011;11272;50.104;8.754;2022-12-20T01:46:22;73.73;;;24.17;;
22205;SDS011;11272;50.104;8.754;2022-12-20T01:48:57;70.67;;;23.50;;
22205;SDS011;11272;50.104;8.754;2022-12-20T01:51:52;72.40;;;24.37;;
22205;SDS011;11272;50.104;8.754;2022-12-20T01:57:00;75.73;;;24.13;;
22205;SDS011;11272;50.104;8.754;2022-12-20T01:59:29;73.03;;;25.63;;
22205;SDS011;11272;50.104;8.754;2022-12-20T02:01:58;68.33;;;23.90;;
22205;SDS011;11272;50.104;8.754;2022-12-20T02:04:27;72.43;;;25.37;;
22205;SDS011;11272;50.104;8.754;2022-12-20T02:06:53;66.97;;;24.40;;
22205;SDS011;11272;50.104;8.754;2022-12-20T02:09:18;69.17;;;23.77;;
22205;SDS011;11272;50.104;8.754;2022-12-20T02:14:58;73.47;;;24.90;;
22205;SDS011;11272;50.104;8.754;2022-12-20T02:22:46;84.90;;;25.00;;
22205;SDS011;11272;50.104;8.754;2022-12-20T02:28:15;76.37;;;24.30;;
22205;SDS011;11272;50.104;8.754;2022-12-20T02:31:00;73.80;;;23.23;;
22205;SDS011;11272;50.104;8.754;2022-12-20T02:33:30;70.50;;;24.13;;
22205;SDS011;11272;50.104;8.754;2022-12-20T02:35:56;55.50;;;22.37;;
22205;SDS011;11272;50.104;8.754;2022-12-20T02:40:54;71.87;;;24.13;;
22205;SDS011;11272;50.104;8.754;2022-12-20T02:43:25;63.43;;;22.50;;
22205;SDS011;11272;50.104;8.754;2022-12-20T02:46:13;77.37;;;25.00;;
22205;SDS011;11272;50.104;8.754;2022-12-20T02:48:41;63.10;;;23.13;;
22205;SDS011;11272;50.104;8.754;2022-12-20T02:51:06;71.20;;;23.40;;
22205;SDS011;11272;50.104;8.754;2022-12-20T02:53:35;67.93;;;24.37;;
22205;SDS011;11272;50.104;8.754;2022-12-20T02:56:22;70.37;;;25.13;;
22205;SDS011;11272;50.104;8.754;2022-12-20T02:59:00;63.97;;;23.07;;
22205;SDS011;11272;50.104;8.754;2022-12-20T03:01:38;74.73;;;26.27;;
22205;SDS011;11272;50.104;8.754;2022-12-20T03:04:08;74.37;;;22.53;;
22205;SDS011;11272;50.104;8.754;2022-12-20T03:06:37;64.90;;;22.80;;
22205;SDS011;11272;50.104;8.754;2022-12-20T03:09:04;60.13;;;22.07;;
22205;SDS011;11272;50.104;8.754;2022-12-20T03:11:33;62.60;;;22.33;;
22205;SDS011;11272;50.104;8.754;2022-12-20T03:13:58;68.17;;;22.50;;
22205;SDS011;11272;50.104;8.754;2022-12-20T03:16:24;70.47;;;22.93;;
22205;SDS011;11272;50.104;8.754;2022-12-20T03:18:50;61.10;;;23.20;;
22205;SDS011;11272;50.104;8.754;2022-12-20T03:21:15;63.23;;;22.53;;
22205;SDS011;11272;50.104;8.754;2022-12-20T03:23:41;69.27;;;23.97;;
22205;SDS011;11272;50.104;8.754;2022-12-20T03:26:07;67.17;;;24.23;;
22205;SDS011;11272;50.104;8.754;2022-12-20T03:28:38;68.70;;;25.10;;
22205;SDS011;11272;50.104;8.754;2022-12-20T03:31:05;62.47;;;23.47;;
22205;SDS011;11272;50.104;8.754;2022-12-20T03:33:37;64.80;;;22.17;;
22205;SDS011;11272;50.104;8.754;2022-12-20T03:36:05;62.87;;;23.13;;
22205;SDS011;11272;50.104;8.754;2022-12-20T03:38:31;68.00;;;22.53;;
22205;SDS011;11272;50.104;8.754;2022-12-20T03:40:57;66.67;;;24.17;;
22205;SDS011;11272;50.104;8.754;2022-12-20T03:43:22;62.60;;;22.63;;
22205;SDS011;11272;50.104;8.754;2022-12-20T03:45:48;60.57;;;23.27;;
22205;SDS011;11272;50.104;8.754;2022-12-20T03:48:14;67.67;;;24.90;;
22205;SDS011;11272;50.104;8.754;2022-12-20T03:50:39;66.13;;;22.93;;
22205;SDS011;11272;50.104;8.754;2022-12-20T03:53:07;65.93;;;23.50;;
22205;SDS011;11272;50.104;8.754;2022-12-20T03:55:33;68.70;;;23.80;;
22205;SDS011;11272;50.104;8.754;2022-12-20T03:57:59;62.93;;;24.27;;
22205;SDS011;11272;50.104;8.754;2022-12-20T04:00:31;76.67;;;27.83;;
22205;SDS011;11272;50.104;8.754;2022-12-20T04:03:16;72.57;;;28.00;;
22205;SDS011;11272;50.104;8.754;2022-12-20T04:05:43;68.17;;;24.63;;
22205;SDS011;11272;50.104;8.754;2022-12-20T04:08:08;81.60;;;26.07;;
22205;SDS011;11272;50.104;8.754;2022-12-20T04:10:34;80.00;;;24.10;;
22205;SDS011;11272;50.104;8.754;2022-12-20T04:13:25;78.83;;;25.57;;
22205;SDS011;11272;50.104;8.754;2022-12-20T04:15:51;71.57;;;26.30;;
22205;SDS011;11272;50.104;8.754;2022-12-20T04:18:18;74.47;;;24.67;;
22205;SDS011;11272;50.104;8.754;2022-12-20T04:20:44;68.80;;;23.67;;
22205;SDS011;11272;50.104;8.754;2022-12-20T04:23:20;61.80;;;23.97;;
22205;SDS011;11272;50.104;8.754;2022-12-20T04:25:47;80.67;;;24.97;;
22205;SDS011;11272;50.104;8.754;2022-12-20T04:28:15;63.90;;;23.93;;
22205;SDS011;11272;50.104;8.754;2022-12-20T04:30:41;67.47;;;25.50;;
22205;SDS011;11272;50.104;8.754;2022-12-20T04:33:10;73.53;;;23.77;;
22205;SDS011;11272;50.104;8.754;2022-12-20T04:35:36;73.00;;;24.33;;
22205;SDS011;11272;50.104;8.754;2022-12-20T04:38:03;77.87;;;26.27;;
22205;SDS011;11272;50.104;8.754;2022-12-20T04:40:29;65.73;;;23.67;;
22205;SDS011;11272;50.104;8.754;2022-12-20T04:42:57;68.60;;;24.97;;
22205;SDS011;11272;50.104;8.754;2022-12-20T04:45:23;74.83;;;24.67;;
22205;SDS011;11272;50.104;8.754;2022-12-20T04:47:50;66.27;;;25.07;;
22205;SDS011;11272;50.104;8.754;2022-12-20T04:50:22;62.73;;;23.53;;
22205;SDS011;11272;50.104;8.754;2022-12-20T04:52:47;69.27;;;24.83;;
22205;SDS011;11272;50.104;8.754;2022-12-20T04:55:36;69.20;;;23.43;;
22205;SDS011;11272;50.104;8.754;2022-12-20T04:58:03;78.30;;;26.10;;
22205;SDS011;11272;50.104;8.754;2022-12-20T05:00:29;72.30;;;26.10;;
22205;SDS011;11272;50.104;8.754;2022-12-20T05:03:03;66.87;;;23.47;;
22205;SDS011;11272;50.104;8.754;2022-12-20T05:05:29;63.00;;;23.87;;
22205;SDS011;11272;50.104;8.754;2022-12-20T05:07:56;73.87;;;26.20;;
22205;SDS011;11272;50.104;8.754;2022-12-20T05:10:23;66.37;;;23.37;;
22205;SDS011;11272;50.104;8.754;2022-12-20T05:12:51;76.20;;;25.40;;
22205;SDS011;11272;50.104;8.754;2022-12-20T05:15:29;64.70;;;24.97;;
22205;SDS011;11272;50.104;8.754;2022-12-20T05:17:55;71.17;;;25.47;;
22205;SDS011;11272;50.104;8.754;2022-12-20T05:20:26;66.67;;;24.17;;
22205;SDS011;11272;50.104;8.754;2022-12-20T05:22:54;74.93;;;25.97;;
22205;SDS011;11272;50.104;8.754;2022-12-20T05:25:57;71.27;;;23.67;;
22205;SDS011;11272;50.104;8.754;2022-12-20T05:28:42;71.37;;;25.33;;
22205;SDS011;11272;50.104;8.754;2022-12-20T05:31:08;73.13;;;25.67;;
22205;SDS011;11272;50.104;8.754;2022-12-20T05:33:34;61.37;;;23.50;;
22205;SDS011;11272;50.104;8.754;2022-12-20T05:36:02;68.97;;;25.40;;
22205;SDS011;11272;50.104;8.754;2022-12-20T05:38:28;65.73;;;22.40;;
22205;SDS011;11272;50.104;8.754;2022-12-20T05:40:54;70.37;;;24.20;;
22205;SDS011;11272;50.104;8.754;2022-12-20T05:43:20;68.00;;;24.80;;
22205;SDS011;11272;50.104;8.754;2022-12-20T05:45:46;67.43;;;24.20;;
22205;SDS011;11272;50.104;8.754;2022-12-20T05:48:15;68.30;;;23.50;;
22205;SDS011;11272;50.104;8.754;2022-12-20T05:50:42;66.83;;;24.33;;
22205;SDS011;11272;50.104;8.754;2022-12-20T05:53:26;61.13;;;23.67;;
22205;SDS011;11272;50.104;8.754;2022-12-20T05:55:56;76.97;;;25.00;;
22205;SDS011;11272;50.104;8.754;2022-12-20T05:58:27;71.97;;;24.13;;
22205;SDS011;11272;50.104;8.754;2022-12-20T06:01:02;77.23;;;26.03;;
22205;SDS011;11272;50.104;8.754;2022-12-20T06:03:33;78.00;;;24.77;;
22205;SDS011;11272;50.104;8.754;2022-12-20T06:06:02;79.10;;;24.43;;
22205;SDS011;11272;50.104;8.754;2022-12-20T06:08:30;66.43;;;25.77;;
22205;SDS011;11272;50.104;8.754;2022-12-20T06:10:58;79.57;;;26.90;;
22205;SDS011;11272;50.104;8.754;2022-12-20T06:13:24;82.47;;;27.80;;
22205;SDS011;11272;50.104;8.754;2022-12-20T06:15:52;81.37;;;27.60;;
22205;SDS011;11272;50.104;8.754;2022-12-20T06:18:19;79.17;;;27.93;;
22205;SDS011;11272;50.104;8.754;2022-12-20T06:20:52;87.40;;;28.90;;
22205;SDS011;11272;50.104;8.754;2022-12-20T06:23:21;81.57;;;27.43;;
22205;SDS011;11272;50.104;8.754;2022-12-20T06:25:57;78.33;;;26.53;;
22205;SDS011;11272;50.104;8.754;2022-12-20T06:28:24;72.40;;;26.10;;
22205;SDS011;11272;50.104;8.754;2022-12-20T06:30:53;74.93;;;27.03;;
22205;SDS011;11272;50.104;8.754;2022-12-20T06:33:33;71.13;;;25.50;;
22205;SDS011;11272;50.104;8.754;2022-12-20T06:36:00;75.83;;;28.33;;
22205;SDS011;11272;50.104;8.754;2022-12-20T06:38:33;70.47;;;26.07;;
22205;SDS011;11272;50.104;8.754;2022-12-20T06:40:58;79.13;;;27.47;;
22205;SDS011;11272;50.104;8.754;2022-12-20T06:43:24;78.00;;;26.77;;
22205;SDS011;11272;50.104;8.754;2022-12-20T06:45:49;69.07;;;26.87;;
22205;SDS011;11272;50.104;8.754;2022-12-20T06:48:16;78.23;;;27.67;;
22205;SDS011;11272;50.104;8.754;2022-12-20T06:50:42;65.47;;;24.37;;
22205;SDS011;11272;50.104;8.754;2022-12-20T06:53:09;72.03;;;26.37;;
22205;SDS011;11272;50.104;8.754;2022-12-20T06:55:35;82.83;;;27.13;;
22205;SDS011;11272;50.104;8.754;2022-12-20T06:58:00;80.13;;;26.03;;
22205;SDS011;11272;50.104;8.754;2022-12-20T07:00:30;71.20;;;25.37;;
22205;SDS011;11272;50.104;8.754;2022-12-20T07:02:56;68.63;;;25.80;;
22205;SDS011;11272;50.104;8.754;2022-12-20T07:05:22;76.97;;;26.40;;
22205;SDS011;11272;50.104;8.754;2022-12-20T07:07:48;71.23;;;26.70;;
22205;SDS011;11272;50.104;8.754;2022-12-20T07:10:14;77.00;;;27.07;;
22205;SDS011;11272;50.104;8.754;2022-12-20T07:12:39;65.50;;;24.37;;
22205;SDS011;11272;50.104;8.754;2022-12-20T07:15:05;78.53;;;26.83;;
22205;SDS011;11272;50.104;8.754;2022-12-20T07:17:32;98.10;;;35.53;;
22205;SDS011;11272;50.104;8.754;2022-12-20T07:19:59;96.77;;;32.33;;
22205;SDS011;11272;50.104;8.754;2022-12-20T07:22:25;93.73;;;30.83;;
22205;SDS011;11272;50.104;8.754;2022-12-20T07:24:51;79.53;;;28.83;;
22205;SDS011;11272;50.104;8.754;2022-12-20T07:27:17;76.73;;;27.17;;
22205;SDS011;11272;50.104;8.754;2022-12-20T07:29:43;77.43;;;26.50;;
22205;SDS011;11272;50.104;8.754;2022-12-20T07:32:09;68.20;;;25.17;;
22205;SDS011;11272;50.104;8.754;2022-12-20T07:34:36;70.00;;;26.23;;
22205;SDS011;11272;50.104;8.754;2022-12-20T07:37:02;68.47;;;26.27;;
22205;SDS011;11272;50.104;8.754;2022-12-20T07:39:28;80.47;;;26.10;;
22205;SDS011;11272;50.104;8.754;2022-12-20T07:41:53;69.47;;;25.27;;
22205;SDS011;11272;50.104;8.754;2022-12-20T07:44:21;83.60;;;25.77;;
22205;SDS011;11272;50.104;8.754;2022-12-20T07:46:47;87.17;;;29.83;;
22205;SDS011;11272;50.104;8.754;2022-12-20T07:49:13;74.13;;;26.97;;
22205;SDS011;11272;50.104;8.754;2022-12-20T07:51:43;74.53;;;27.13;;
22205;SDS011;11272;50.104;8.754;2022-12-20T07:54:19;71.77;;;26.97;;
22205;SDS011;11272;50.104;8.754;2022-12-20T07:56:49;74.63;;;28.77;;
22205;SDS011;11272;50.104;8.754;2022-12-20T07:59:19;77.77;;;26.50;;
22205;SDS011;11272;50.104;8.754;2022-12-20T08:01:49;73.20;;;26.90;;
22205;SDS011;11272;50.104;8.754;2022-12-20T08:04:20;87.97;;;28.93;;
22205;SDS011;11272;50.104;8.754;2022-12-20T08:06:49;79.13;;;28.47;;
22205;SDS011;11272;50.104;8.754;2022-12-20T08:09:22;85.63;;;29.30;;
22205;SDS011;11272;50.104;8.754;2022-12-20T08:11:50;76.00;;;27.47;;
22205;SDS011;11272;50.104;8.754;2022-12-20T08:14:17;77.67;;;28.20;;
22205;SDS011;11272;50.104;8.754;2022-12-20T08:16:43;82.33;;;29.03;;
22205;SDS011;11272;50.104;8.754;2022-12-20T08:19:10;84.37;;;29.87;;
22205;SDS011;11272;50.104;8.754;2022-12-20T08:21:37;91.63;;;30.60;;
22205;SDS011;11272;50.104;8.754;2022-12-20T08:24:03;88.57;;;30.57;;
22205;SDS011;11272;50.104;8.754;2022-12-20T08:26:29;92.50;;;30.30;;
22205;SDS011;11272;50.104;8.754;2022-12-20T08:28:55;97.70;;;32.60;;
22205;SDS011;11272;50.104;8.754;2022-12-20T08:31:21;79.53;;;30.00;;
22205;SDS011;11272;50.104;8.754;2022-12-20T08:33:48;90.33;;;31.33;;
22205;SDS011;11272;50.104;8.754;2022-12-20T08:36:14;97.23;;;33.43;;
22205;SDS011;11272;50.104;8.754;2022-12-20T08:38:40;102.07;;;36.33;;
22205;SDS011;11272;50.104;8.754;2022-12-20T08:41:07;92.07;;;33.70;;
22205;SDS011;11272;50.104;8.754;2022-12-20T08:43:40;96.23;;;34.10;;
22205;SDS011;11272;50.104;8.754;2022-12-20T08:46:06;97.23;;;33.03;;
22205;SDS011;11272;50.104;8.754;2022-12-20T08:48:34;99.33;;;37.07;;
22205;SDS011;11272;50.104;8.754;2022-12-20T08:51:01;82.13;;;30.80;;
22205;SDS011;11272;50.104;8.754;2022-12-20T08:53:30;82.43;;;31.20;;
22205;SDS011;11272;50.104;8.754;2022-12-20T08:56:09;72.60;;;28.80;;
22205;SDS011;11272;50.104;8.754;2022-12-20T08:58:39;80.43;;;28.97;;
22205;SDS011;11272;50.104;8.754;2022-12-20T09:01:06;74.13;;;30.10;;
22205;SDS011;11272;50.104;8.754;2022-12-20T09:03:34;73.13;;;28.13;;
22205;SDS011;11272;50.104;8.754;2022-12-20T09:06:01;72.97;;;27.50;;
22205;SDS011;11272;50.104;8.754;2022-12-20T09:08:31;67.57;;;28.53;;
22205;SDS011;11272;50.104;8.754;2022-12-20T09:11:08;77.47;;;28.50;;
22205;SDS011;11272;50.104;8.754;2022-12-20T09:13:38;67.37;;;26.40;;
22205;SDS011;11272;50.104;8.754;2022-12-20T09:16:08;63.77;;;26.90;;
22205;SDS011;11272;50.104;8.754;2022-12-20T09:18:34;65.27;;;27.10;;
22205;SDS011;11272;50.104;8.754;2022-12-20T09:21:00;67.67;;;27.33;;
22205;SDS011;11272;50.104;8.754;2022-12-20T09:23:27;72.13;;;27.70;;
22205;SDS011;11272;50.104;8.754;2022-12-20T09:25:53;71.03;;;27.37;;
22205;SDS011;11272;50.104;8.754;2022-12-20T09:28:19;63.27;;;26.17;;
22205;SDS011;11272;50.104;8.754;2022-12-20T09:30:45;66.67;;;27.77;;
22205;SDS011;11272;50.104;8.754;2022-12-20T09:33:11;65.37;;;26.90;;
22205;SDS011;11272;50.104;8.754;2022-12-20T09:35:46;71.20;;;27.97;;
22205;SDS011;11272;50.104;8.754;2022-12-20T09:38:12;67.43;;;27.80;;
22205;SDS011;11272;50.104;8.754;2022-12-20T09:40:38;68.87;;;28.40;;
22205;SDS011;11272;50.104;8.754;2022-12-20T09:43:09;61.17;;;27.07;;
22205;SDS011;11272;50.104;8.754;2022-12-20T09:45:36;60.73;;;26.30;;
22205;SDS011;11272;50.104;8.754;2022-12-20T09:48:02;72.30;;;29.13;;
22205;SDS011;11272;50.104;8.754;2022-12-20T09:50:38;64.50;;;28.77;;
22205;SDS011;11272;50.104;8.754;2022-12-20T09:56:24;74.67;;;32.53;;
22205;SDS011;11272;50.104;8.754;2022-12-20T10:01:35;62.43;;;30.00;;
22205;SDS011;11272;50.104;8.754;2022-12-20T10:04:04;63.47;;;29.07;;
22205;SDS011;11272;50.104;8.754;2022-12-20T10:06:35;64.40;;;29.93;;
22205;SDS011;11272;50.104;8.754;2022-12-20T10:09:12;69.13;;;29.83;;
22205;SDS011;11272;50.104;8.754;2022-12-20T10:23:29;57.47;;;25.57;;
22205;SDS011;11272;50.104;8.754;2022-12-20T10:26:01;61.13;;;25.87;;
22205;SDS011;11272;50.104;8.754;2022-12-20T10:28:33;54.23;;;27.30;;
22205;SDS011;11272;50.104;8.754;2022-12-20T10:31:13;53.40;;;27.47;;
22205;SDS011;11272;50.104;8.754;2022-12-20T10:33:41;57.83;;;26.60;;
22205;SDS011;11272;50.104;8.754;2022-12-20T10:36:27;59.63;;;26.43;;
22205;SDS011;11272;50.104;8.754;2022-12-20T10:38:54;60.70;;;26.43;;
22205;SDS011;11272;50.104;8.754;2022-12-20T10:41:28;59.47;;;26.73;;
22205;SDS011;11272;50.104;8.754;2022-12-20T10:43:59;58.43;;;27.23;;
22205;SDS011;11272;50.104;8.754;2022-12-20T10:46:35;61.43;;;26.53;;
22205;SDS011;11272;50.104;8.754;2022-12-20T10:51:58;59.77;;;27.17;;
22205;SDS011;11272;50.104;8.754;2022-12-20T10:54:54;56.40;;;27.00;;
22205;SDS011;11272;50.104;8.754;2022-12-20T10:57:21;52.27;;;24.97;;
22205;SDS011;11272;50.104;8.754;2022-12-20T10:59:53;61.60;;;28.43;;
22205;SDS011;11272;50.104;8.754;2022-12-20T11:02:28;60.10;;;27.83;;
22205;SDS011;11272;50.104;8.754;2022-12-20T11:07:35;54.70;;;26.40;;
22205;SDS011;11272;50.104;8.754;2022-12-20T11:10:16;58.00;;;26.60;;
22205;SDS011;11272;50.104;8.754;2022-12-20T11:12:51;52.27;;;24.07;;
22205;SDS011;11272;50.104;8.754;2022-12-20T11:15:22;56.50;;;24.30;;
22205;SDS011;11272;50.104;8.754;2022-12-20T11:17:50;52.23;;;24.03;;
22205;SDS011;11272;50.104;8.754;2022-12-20T11:20:24;54.63;;;25.13;;
22205;SDS011;11272;50.104;8.754;2022-12-20T11:26:30;48.67;;;23.53;;
22205;SDS011;11272;50.104;8.754;2022-12-20T11:29:46;49.97;;;23.80;;
22205;SDS011;11272;50.104;8.754;2022-12-20T11:32:07;46.60;;;22.40;;
22205;SDS011;11272;50.104;8.754;2022-12-20T11:34:49;45.73;;;21.33;;
22205;SDS011;11272;50.104;8.754;2022-12-20T11:37:45;47.73;;;22.33;;
22205;SDS011;11272;50.104;8.754;2022-12-20T11:43:54;34.10;;;18.07;;
22205;SDS011;11272;50.104;8.754;2022-12-20T11:51:48;35.57;;;17.23;;
22205;SDS011;11272;50.104;8.754;2022-12-20T11:54:26;40.90;;;18.97;;
22205;SDS011;11272;50.104;8.754;2022-12-20T11:57:00;40.40;;;20.03;;
22205;SDS011;11272;50.104;8.754;2022-12-20T12:02:08;37.23;;;18.43;;
22205;SDS011;11272;50.104;8.754;2022-12-20T12:04:44;42.83;;;19.60;;
22205;SDS011;11272;50.104;8.754;2022-12-20T12:07:18;38.70;;;18.77;;
22205;SDS011;11272;50.104;8.754;2022-12-20T12:12:47;34.83;;;17.70;;
22205;SDS011;11272;50.104;8.754;2022-12-20T12:17:58;33.60;;;17.03;;
22205;SDS011;11272;50.104;8.754;2022-12-20T12:20:44;31.63;;;16.33;;
22205;SDS011;11272;50.104;8.754;2022-12-20T12:23:18;36.33;;;16.83;;
22205;SDS011;11272;50.104;8.754;2022-12-20T12:25:48;34.70;;;17.17;;
22205;SDS011;11272;50.104;8.754;2022-12-20T12:28:14;35.60;;;17.07;;
22205;SDS011;11272;50.104;8.754;2022-12-20T12:30:45;39.60;;;18.33;;
22205;SDS011;11272;50.104;8.754;2022-12-20T12:33:19;33.50;;;18.13;;
22205;SDS011;11272;50.104;8.754;2022-12-20T12:41:19;37.63;;;19.80;;
22205;SDS011;11272;50.104;8.754;2022-12-20T12:46:21;40.10;;;19.27;;
22205;SDS011;11272;50.104;8.754;2022-12-20T12:51:48;38.23;;;19.27;;
22205;SDS011;11272;50.104;8.754;2022-12-20T12:56:48;38.83;;;20.67;;
22205;SDS011;11272;50.104;8.754;2022-12-20T13:04:55;39.97;;;19.33;;
22205;SDS011;11272;50.104;8.754;2022-12-20T13:09:58;34.67;;;17.63;;
22205;SDS011;11272;50.104;8.754;2022-12-20T13:17:57;39.47;;;19.40;;
22205;SDS011;11272;50.104;8.754;2022-12-20T13:20:25;39.60;;;18.73;;
22205;SDS011;11272;50.104;8.754;2022-12-20T13:23:04;34.07;;;18.07;;
22205;SDS011;11272;50.104;8.754;2022-12-20T13:25:37;41.63;;;20.07;;
22205;SDS011;11272;50.104;8.754;2022-12-20T13:46:46;37.13;;;17.47;;
22205;SDS011;11272;50.104;8.754;2022-12-20T13:54:58;35.50;;;17.63;;
22205;SDS011;11272;50.104;8.754;2022-12-20T13:57:28;31.70;;;16.90;;
22205;SDS011;11272;50.104;8.754;2022-12-20T14:00:01;30.70;;;16.33;;
22205;SDS011;11272;50.104;8.754;2022-12-20T14:02:32;34.20;;;16.80;;
22205;SDS011;11272;50.104;8.754;2022-12-20T14:05:02;31.40;;;15.53;;
22205;SDS011;11272;50.104;8.754;2022-12-20T14:07:32;32.60;;;16.37;;
22205;SDS011;11272;50.104;8.754;2022-12-20T14:10:00;32.83;;;17.87;;
22205;SDS011;11272;50.104;8.754;2022-12-20T14:15:31;30.73;;;16.50;;
22205;SDS011;11272;50.104;8.754;2022-12-20T14:18:05;35.27;;;16.13;;
22205;SDS011;11272;50.104;8.754;2022-12-20T14:20:42;31.53;;;17.37;;
22205;SDS011;11272;50.104;8.754;2022-12-20T14:23:10;33.57;;;16.63;;
22205;SDS011;11272;50.104;8.754;2022-12-20T14:25:54;31.67;;;16.60;;
22205;SDS011;11272;50.104;8.754;2022-12-20T14:30:54;34.30;;;17.40;;
22205;SDS011;11272;50.104;8.754;2022-12-20T14:33:27;32.47;;;17.70;;
22205;SDS011;11272;50.104;8.754;2022-12-20T14:35:55;34.67;;;17.23;;
22205;SDS011;11272;50.104;8.754;2022-12-20T14:38:22;35.03;;;18.93;;
22205;SDS011;11272;50.104;8.754;2022-12-20T14:40:53;34.13;;;17.63;;
22205;SDS011;11272;50.104;8.754;2022-12-20T14:43:41;33.63;;;18.17;;
22205;SDS011;11272;50.104;8.754;2022-12-20T14:46:07;38.53;;;18.67;;
22205;SDS011;11272;50.104;8.754;2022-12-20T14:48:33;37.77;;;20.17;;
22205;SDS011;11272;50.104;8.754;2022-12-20T14:51:03;38.50;;;19.40;;
22205;SDS011;11272;50.104;8.754;2022-12-20T14:53:29;34.47;;;19.17;;
22205;SDS011;11272;50.104;8.754;2022-12-20T14:55:55;40.60;;;20.27;;
22205;SDS011;11272;50.104;8.754;2022-12-20T14:58:25;38.03;;;19.53;;
22205;SDS011;11272;50.104;8.754;2022-12-20T15:01:14;42.73;;;20.83;;
22205;SDS011;11272;50.104;8.754;2022-12-20T15:03:54;41.73;;;20.17;;
22205;SDS011;11272;50.104;8.754;2022-12-20T15:06:36;38.00;;;20.27;;
22205;SDS011;11272;50.104;8.754;2022-12-20T15:09:02;42.60;;;20.57;;
22205;SDS011;11272;50.104;8.754;2022-12-20T15:11:29;47.17;;;21.63;;
22205;SDS011;11272;50.104;8.754;2022-12-20T15:13:55;40.83;;;19.80;;
22205;SDS011;11272;50.104;8.754;2022-12-20T15:16:27;40.73;;;20.33;;
22205;SDS011;11272;50.104;8.754;2022-12-20T15:18:58;36.70;;;19.60;;
22205;SDS011;11272;50.104;8.754;2022-12-20T15:21:33;39.10;;;19.63;;
22205;SDS011;11272;50.104;8.754;2022-12-20T15:24:03;42.07;;;21.30;;
22205;SDS011;11272;50.104;8.754;2022-12-20T15:26:33;46.87;;;21.33;;
22205;SDS011;11272;50.104;8.754;2022-12-20T15:28:59;40.40;;;20.17;;
22205;SDS011;11272;50.104;8.754;2022-12-20T15:31:25;44.40;;;20.13;;
22205;SDS011;11272;50.104;8.754;2022-12-20T15:33:53;41.80;;;20.87;;
22205;SDS011;11272;50.104;8.754;2022-12-20T15:36:23;37.57;;;20.27;;
22205;SDS011;11272;50.104;8.754;2022-12-20T15:38:53;44.47;;;21.13;;
22205;SDS011;11272;50.104;8.754;2022-12-20T15:44:13;39.80;;;19.97;;
22205;SDS011;11272;50.104;8.754;2022-12-20T15:46:42;36.67;;;20.10;;
22205;SDS011;11272;50.104;8.754;2022-12-20T15:49:11;44.20;;;20.90;;
22205;SDS011;11272;50.104;8.754;2022-12-20T15:51:39;42.40;;;20.33;;
22205;SDS011;11272;50.104;8.754;2022-12-20T15:57:05;41.70;;;20.30;;
22205;SDS011;11272;50.104;8.754;2022-12-20T15:59:36;44.57;;;20.63;;
22205;SDS011;11272;50.104;8.754;2022-12-20T16:02:02;38.23;;;20.27;;
22205;SDS011;11272;50.104;8.754;2022-12-20T16:04:28;42.03;;;20.37;;
22205;SDS011;11272;50.104;8.754;2022-12-20T16:06:54;42.03;;;21.87;;
22205;SDS011;11272;50.104;8.754;2022-12-20T16:09:21;51.80;;;24.17;;
22205;SDS011;11272;50.104;8.754;2022-12-20T16:11:50;46.30;;;21.17;;
22205;SDS011;11272;50.104;8.754;2022-12-20T16:14:17;47.13;;;22.97;;
22205;SDS011;11272;50.104;8.754;2022-12-20T16:16:45;51.63;;;25.13;;
22205;SDS011;11272;50.104;8.754;2022-12-20T16:19:12;51.20;;;24.60;;
22205;SDS011;11272;50.104;8.754;2022-12-20T16:21:48;45.50;;;23.80;;
22205;SDS011;11272;50.104;8.754;2022-12-20T16:24:17;44.37;;;23.10;;
22205;SDS011;11272;50.104;8.754;2022-12-20T16:26:46;47.27;;;23.07;;
22205;SDS011;11272;50.104;8.754;2022-12-20T16:29:13;50.83;;;23.33;;
22205;SDS011;11272;50.104;8.754;2022-12-20T16:31:39;42.53;;;21.67;;
22205;SDS011;11272;50.104;8.754;2022-12-20T16:42:57;44.67;;;22.40;;
22205;SDS011;11272;50.104;8.754;2022-12-20T16:56:30;47.77;;;24.13;;
22205;SDS011;11272;50.104;8.754;2022-12-20T16:58:56;58.33;;;27.57;;
22205;SDS011;11272;50.104;8.754;2022-12-20T17:01:23;76.83;;;30.53;;
22205;SDS011;11272;50.104;8.754;2022-12-20T17:03:52;53.77;;;26.70;;